Flight Track Log - Related Links

Times and Time Zones

All times are in EDT time to prevent confusion due to time zone crossing. See the UPS2774 flight status page for this flight to view local times or setup timezone preferences in your user account.

Time Position Orientation Groundspeed Altitude Reporting Facility
EDT Latitude Longitude Course Direction KTS MPH feet Rate Location/Type
Tue 04:58:49 PM 38.1334 -86.0515 240° Southwest 348 400 13,100  Level FlightAware ADS-B (EPWR / WRO)
Tue 05:00:00 PM 38.0408 -86.3809 265° West  Level FlightAware Approximate
Tue 05:01:00 PM 38.0304 -86.5279 265° West  Level FlightAware Approximate
Tue 05:01:17 PM 38.0970 -86.3526 263° West 352 405 20,000  Level FlightAware ADS-B (EPWR / WRO)
Tue 05:02:12 PM 38.0901 -86.4261 264° West 369 425 22,100 2,154 Climbing FlightAware ADS-B
Tue 05:03:53 PM 38.0700 -86.6396 263° West 392 451 25,600 2,376 Climbing FlightAware ADS-B
Tue 05:04:41 PM 38.0605 -86.7419 263° West 403 464 28,000 2,374 Climbing FlightAware ADS-B
Tue 05:05:24 PM 38.0452 -86.8983 263° West 409 471 29,200 1,890 Climbing FlightAware ADS-B
Tue 05:05:54 PM 38.0384 -86.9701 263° West 413 475 30,300 2,000 Climbing FlightAware ADS-B
Tue 05:06:45 PM 38.0265 -87.0920 263° West 414 476 31,900 1,020 Climbing FlightAware ADS-B
Tue 05:07:34 PM 38.0178 -87.1787 263° West 432 497 32,000 69 Climbing FlightAware ADS-B
Tue 05:08:12 PM 38.0051 -87.3081 263° West 428 493 32,000  Level FlightAware ADS-B
Tue 05:08:43 PM 37.9970 -87.3868 263° West 429 494 32,000 568 Level FlightAware ADS-B
Tue 05:09:26 PM 37.9968 -87.4893 274° West 426 490 32,700 769 Climbing FlightAware ADS-B
Tue 05:10:01 PM 37.9992 -87.5407 273° West 433 498 33,000 269 Climbing FlightAware ADS-B
Tue 05:10:33 PM 38.0045 -87.6644 273° West 442 509 33,000 -95 Level FlightAware ADS-B
Tue 05:11:04 PM 38.0079 -87.7450 273° West 443 510 32,900  Descending FlightAware ADS-B
Tue 05:11:56 PM 38.0140 -87.8777 273° West 443 510 33,000 146 Climbing FlightAware ADS-B
Tue 05:12:26 PM 38.0166 -87.9355 273° West 445 512 33,100 771 Climbing FlightAware ADS-B
Tue 05:13:06 PM 38.0227 -88.0566 274° West 424 488 33,900 1,105 Climbing FlightAware ADS-B
Tue 05:13:42 PM 38.0260 -88.1364 269° West 415 478 34,500 1,091 Climbing FlightAware ADS-B
Tue 05:14:12 PM 38.0198 -88.2179 260° West 415 478 35,100 840 Climbing FlightAware ADS-B
Tue 05:15:22 PM 37.9936 -88.3848 259° West 415 478 35,900 511 Climbing FlightAware ADS-B
Tue 05:15:46 PM 37.9813 -88.4400 248° West 415 478 35,900  Level FlightAware ADS-B
Tue 05:16:15 PM 37.9544 -88.4981 231° Southwest 418 481 35,900 86 Level FlightAware ADS-B
Tue 05:16:56 PM 37.8988 -88.5763 228° Southwest 421 484 36,000 83 Climbing FlightAware ADS-B
Tue 05:17:27 PM 37.8618 -88.6269 227° Southwest 420 483 36,000  Level FlightAware ADS-B
Tue 05:18:06 PM 37.8156 -88.6896 227° Southwest 421 484 36,000  Level FlightAware ADS-B
Tue 05:18:36 PM 37.7666 -88.7558 227° Southwest 422 486 36,000  Level FlightAware ADS-B
Tue 05:19:07 PM 37.7260 -88.8108 227° Southwest 423 487 36,000  Level FlightAware ADS-B
Tue 05:19:46 PM 37.6832 -88.8689 227° Southwest 423 487 36,000  Level FlightAware ADS-B
Tue 05:20:40 PM 37.6133 -88.9633 227° Southwest 421 484 36,000  Level Memphis Center
Tue 05:22:35 PM 37.4511 -89.1817 227° Southwest 423 487 36,000 -24 Level Kansas City Center
Tue 05:24:48 PM 37.2753 -89.4164 227° Southwest 423 487 35,900 -31 Descending Memphis Center
Tue 05:25:50 PM 37.1919 -89.5208 225° Southwest 424 488 35,900 48 Level Memphis Center
Tue 05:26:52 PM 37.1039 -89.6189 222° Southwest 425 489 36,000 48 Climbing Memphis Center
Tue 05:27:54 PM 37.0142 -89.7164 221° Southwest 426 490 36,000  Level Memphis Center
Tue 05:28:56 PM 36.9247 -89.8142 221° Southwest 427 491 36,000 -48 Level Memphis Center
Tue 05:29:59 PM 36.8175 -89.9314 221° Southwest 429 494 35,900  Descending Memphis Center
Tue 05:31:01 PM 36.7281 -90.0286 221° Southwest 429 494 36,000 48 Climbing Memphis Center
Tue 05:32:03 PM 36.6386 -90.1261 221° Southwest 429 494 36,000  Level Memphis Center
Tue 05:33:05 PM 36.5486 -90.2233 221° Southwest 429 494 36,000  Level Memphis Center
Tue 05:34:07 PM 36.4558 -90.3233 221° Southwest 430 495 36,000  Level Memphis Center
Tue 05:39:46 PM 35.9202 -90.8945 221° Southwest 440 506 36,000  Level FlightAware ADS-B
Tue 05:40:26 PM 35.8583 -90.9600 221° Southwest 440 506 36,000  Level FlightAware ADS-B
Tue 05:41:09 PM 35.7940 -91.0276 221° Southwest 440 506 36,000  Level FlightAware ADS-B
Tue 05:41:49 PM 35.7341 -91.0909 221° Southwest 441 507 36,000  Level FlightAware ADS-B
Tue 05:42:29 PM 35.6721 -91.1559 221° Southwest 440 506 36,000  Level FlightAware ADS-B
Tue 05:43:18 PM 35.5921 -91.2394 221° Southwest 441 507 36,000  Level FlightAware ADS-B
Tue 05:43:59 PM 35.5289 -91.3053 221° Southwest 441 507 36,000  Level FlightAware ADS-B
Tue 05:44:39 PM 35.4658 -91.3620 209° Southwest 448 516 36,000  Level FlightAware ADS-B
Tue 05:45:19 PM 35.3833 -91.4014 198° South 456 525 36,000  Level FlightAware ADS-B
Tue 05:45:59 PM 35.3128 -91.4290 198° South 456 525 36,000  Level FlightAware ADS-B
Tue 05:46:39 PM 35.2262 -91.4621 198° South 455 524 36,000  Level FlightAware ADS-B
Tue 05:47:20 PM 35.1434 -91.4941 198° South 455 524 36,000  Level FlightAware ADS-B
Tue 05:47:59 PM 35.0800 -91.5187 198° South 455 524 36,000  Level FlightAware ADS-B
Tue 05:48:40 PM 34.9809 -91.5573 198° South 454 522 36,000  Level FlightAware ADS-B
Tue 05:49:18 PM 34.9037 -91.5871 198° South 454 522 36,000  Level FlightAware ADS-B
Tue 05:49:58 PM 34.8239 -91.6177 198° South 455 524 36,000  Level FlightAware ADS-B
Tue 05:50:40 PM 34.7397 -91.6502 198° South 455 524 36,000  Level FlightAware ADS-B
Tue 05:51:19 PM 34.6645 -91.6791 198° South 456 525 36,000  Level FlightAware ADS-B
Tue 05:51:59 PM 34.5815 -91.7108 197° South 457 526 36,000  Level FlightAware ADS-B
Tue 05:52:38 PM 34.5030 -91.7408 198° South 457 526 36,000  Level FlightAware ADS-B
Tue 05:53:19 PM 34.4241 -91.7709 198° South 458 527 36,000  Level FlightAware ADS-B
Tue 05:54:01 PM 34.3347 -91.8048 197° South 458 527 36,000  Level FlightAware ADS-B
Tue 05:54:41 PM 34.2535 -91.8357 198° South 459 528 36,000  Level FlightAware ADS-B
Tue 05:55:16 PM 34.1821 -91.8627 198° South 461 531 36,000  Level FlightAware ADS-B
Tue 05:56:00 PM 34.0991 -91.8941 198° South 461 531 36,000  Level FlightAware ADS-B
Tue 05:56:41 PM 34.0083 -91.9284 197° South 462 532 36,000  Level FlightAware ADS-B
Tue 05:57:21 PM 33.9413 -91.9536 198° South 463 533 36,000  Level FlightAware ADS-B
Tue 05:59:30 PM 33.6635 -92.0578 197° South 462 532 36,000  Level FlightAware ADS-B
Tue 06:00:01 PM 33.6008 -92.0812 197° South 463 533 36,000  Level FlightAware ADS-B
Tue 06:01:20 PM 33.4379 -92.1418 197° South 464 534 36,000  Level FlightAware ADS-B
Tue 06:02:10 PM 33.3355 -92.1800 197° South 464 534 36,000  Level FlightAware ADS-B
Tue 06:03:27 PM 33.1762 -92.2388 197° South 465 535 36,000  Level FlightAware ADS-B
Tue 06:08:59 PM 32.4928 -92.4893 197° South 467 537 36,000  Level FlightAware ADS-B
Tue 06:09:09 PM 32.4732 -92.4964 198° South 466 536 36,000  Level FlightAware ADS-B (KHOU)
Tue 06:09:39 PM 32.4128 -92.5182 198° South 465 535 36,000  Level FlightAware ADS-B (KHOU)
Tue 06:10:09 PM 32.3484 -92.5414 198° South 466 536 36,000  Level FlightAware ADS-B (KHOU)
Tue 06:10:38 PM 32.3039 -92.5575 198° South 467 537 36,000  Level FlightAware ADS-B (KHOU)
Tue 06:11:09 PM 32.2242 -92.5865 198° South 467 537 36,000  Level FlightAware ADS-B (KHOU)
Tue 06:11:39 PM 32.1620 -92.6091 198° South 468 539 36,000  Level FlightAware ADS-B (KHOU)
Tue 06:11:49 PM 32.1453 -92.6151 197° South 469 540 36,000  Level FlightAware ADS-B
Tue 06:12:04 PM 32.1246 -92.6226 198° South 468 539 36,000  Level FlightAware ADS-B (KHOU)
Tue 06:12:39 PM 32.0400 -92.6530 197° South 469 540 36,000  Level FlightAware ADS-B (KHOU)
Tue 06:13:11 PM 31.9750 -92.6829 208° Southwest 457 526 36,000 -182 Level FlightAware ADS-B
Tue 06:13:45 PM 31.9207 -92.7282 220° Southwest 442 509 35,800 -529 Descending FlightAware ADS-B
Tue 06:14:19 PM 31.8633 -92.7836 220° Southwest 447 514 35,400 -358 Descending FlightAware ADS-B
Tue 06:15:59 PM 31.7081 -92.9341 220° Southwest 442 509 35,000 -185 Descending FlightAware ADS-B (KHOU)
Tue 06:16:29 PM 31.6604 -92.9801 220° Southwest 441 507 35,000  Level FlightAware ADS-B (KHOU)
Tue 06:17:19 PM 31.5790 -93.0583 220° Southwest 439 505 35,000  Level FlightAware ADS-B (KHOU)
Tue 06:17:49 PM 31.5325 -93.1030 220° Southwest 437 503 35,000  Level FlightAware ADS-B (KHOU)
Tue 06:18:19 PM 31.4876 -93.1462 220° Southwest 435 501 35,000 -74 Level FlightAware ADS-B (KHOU)
Tue 06:19:10 PM 31.4056 -93.2248 220° Southwest 431 496 34,900 -107 Descending FlightAware ADS-B
Tue 06:19:15 PM 31.3995 -93.2306 220° Southwest 430 495 34,900 -615 Level FlightAware ADS-B (KHOU)
Tue 06:19:49 PM 31.3471 -93.2809 220° Southwest 429 494 34,500 -1,406 Descending FlightAware ADS-B (KHOU)
Tue 06:20:19 PM 31.2994 -93.3267 220° Southwest 452 520 33,400 -2,500 Descending FlightAware ADS-B (KHOU)
Tue 06:20:49 PM 31.2616 -93.3630 220° Southwest 469 540 32,000 -2,677 Descending FlightAware ADS-B (KHOU)
Tue 06:21:24 PM 31.1913 -93.4295 219° Southwest 477 549 30,500 -1,846 Descending FlightAware ADS-B (KHOU)
Tue 06:21:54 PM 31.1396 -93.4783 219° Southwest 457 526 30,000 -423 Descending FlightAware ADS-B (KHOU)
Tue 06:22:35 PM 31.0738 -93.5408 220° Southwest 462 532 30,000  Level FlightAware ADS-B (KHOU)
Tue 06:23:04 PM 31.0242 -93.5882 220° Southwest 472 543 30,000  Level FlightAware ADS-B (KHOU)
Tue 06:23:34 PM 30.9725 -93.6372 220° Southwest 476 548 30,000 -100 Level FlightAware ADS-B (KHOU)
Tue 06:24:04 PM 30.9209 -93.6856 219° Southwest 468 539 29,900 -885 Descending FlightAware ADS-B (KHOU)
Tue 06:24:35 PM 30.8713 -93.7324 220° Southwest 456 525 29,100 -2,300 Descending FlightAware ADS-B (KHOU)
Tue 06:25:04 PM 30.8233 -93.7780 219° Southwest 450 518 27,600 -3,100 Descending FlightAware ADS-B (KHOU)
Tue 06:25:35 PM 30.7742 -93.8234 220° Southwest 443 510 26,000 -2,900 Descending FlightAware ADS-B (KHOU)
Tue 06:26:04 PM 30.7275 -93.8677 220° Southwest 434 499 24,700 -2,949 Descending FlightAware ADS-B (KHOU)
Tue 06:26:34 PM 30.6818 -93.9108 220° Southwest 420 483 23,100 -3,148 Descending FlightAware ADS-B (KHOU)
Tue 06:27:05 PM 30.6372 -93.9529 220° Southwest 417 480 21,500 -2,700 Descending FlightAware ADS-B (KHOU)
Tue 06:27:34 PM 30.5921 -93.9952 220° Southwest 419 482 20,400 -2,149 Descending FlightAware ADS-B (KHOU)
Tue 06:28:12 PM 30.5338 -94.0497 219° Southwest 412 474 19,100 -1,941 Descending FlightAware ADS-B
Tue 06:28:42 PM 30.5097 -94.0721 220° Southwest 405 466 18,200 -1,627 Descending FlightAware ADS-B
Tue 06:29:11 PM 30.4544 -94.1234 219° Southwest 398 458 17,500 -1,759 Descending FlightAware ADS-B
Tue 06:29:40 PM 30.4074 -94.1673 219° Southwest 391 450 16,500 -2,032 Descending FlightAware ADS-B
Tue 06:30:13 PM 30.3620 -94.2098 219° Southwest 391 450 15,400 -2,032 Descending FlightAware ADS-B
Tue 06:30:42 PM 30.3190 -94.2498 220° Southwest 389 448 14,400 -2,034 Descending FlightAware ADS-B
Tue 06:31:12 PM 30.2774 -94.2884 219° Southwest 380 437 13,400 -2,100 Descending FlightAware ADS-B
Tue 06:31:42 PM 30.2383 -94.3242 219° Southwest 353 406 12,300 -1,698 Descending FlightAware ADS-B
Tue 06:32:05 PM 30.2114 -94.3519 229° Southwest 328 377 11,900 -750 Descending FlightAware ADS-B (KHOU)
Tue 06:32:14 PM 30.2031 -94.3656 239° Southwest 312 359 11,900 -316 Level FlightAware ADS-B (KHOU)
Tue 06:32:24 PM 30.1979 -94.3773 247° West 305 351 11,800 -857 Descending FlightAware ADS-B (KHOU)
Tue 06:32:35 PM 30.1923 -94.3956 255° West 296 341 11,600 -1,286 Descending FlightAware ADS-B (KHOU)
Tue 06:32:52 PM 30.1856 -94.4201 247° West 298 343 11,200 -1,250 Descending FlightAware ADS-B
Tue 06:33:23 PM 30.1673 -94.4630 245° Southwest 267 307 10,600 -1,529 Descending FlightAware ADS-B
Tue 06:33:43 PM 30.1580 -94.4872 248° West 255 293 9,900 -1,886 Descending FlightAware ADS-B
Tue 06:33:58 PM 30.1509 -94.5073 249° West 260 299 9,500 -1,241 Descending FlightAware ADS-B
Tue 06:34:12 PM 30.1445 -94.5260 249° West 262 302 9,300 -800 Descending FlightAware ADS-B
Tue 06:34:28 PM 30.1377 -94.5462 249° West 264 304 9,100 -889 Descending FlightAware ADS-B
Tue 06:34:39 PM 30.1338 -94.5575 249° West 265 305 8,900 -828 Descending FlightAware ADS-B
Tue 06:34:57 PM 30.1241 -94.5860 249° West 271 312 8,700 -909 Descending FlightAware ADS-B
Tue 06:35:12 PM 30.1171 -94.6062 249° West 276 318 8,400 -968 Descending FlightAware ADS-B
Tue 06:35:28 PM 30.1097 -94.6276 248° West 277 319 8,200 -1,000 Descending FlightAware ADS-B
Tue 06:35:42 PM 30.1026 -94.6475 249° West 275 316 7,900 -1,071 Descending FlightAware ADS-B
Tue 06:35:56 PM 30.0959 -94.6664 248° West 275 316 7,700 -968 Descending FlightAware ADS-B
Tue 06:36:13 PM 30.0880 -94.6884 248° West 274 315 7,400 -938 Descending FlightAware ADS-B
Tue 06:36:28 PM 30.0804 -94.7093 248° West 274 315 7,200 -1,034 Descending FlightAware ADS-B
Tue 06:36:42 PM 30.0734 -94.7289 248° West 271 312 6,900 -600 Descending FlightAware ADS-B
Tue 06:36:58 PM 30.0661 -94.7492 248° West 267 307 6,900  Level FlightAware ADS-B
Tue 06:37:17 PM 30.0569 -94.7752 249° West 265 305 6,900  Level FlightAware ADS-B
Tue 06:37:37 PM 30.0474 -94.8016 248° West 268 308 6,900  Level FlightAware ADS-B
Tue 06:37:58 PM 30.0384 -94.8271 248° West 267 307 6,900  Level FlightAware ADS-B
Tue 06:38:17 PM 30.0287 -94.8546 248° West 268 308 6,900  Level FlightAware ADS-B
Tue 06:38:32 PM 30.0214 -94.8747 248° West 268 308 6,900 -182 Level FlightAware ADS-B
Tue 06:38:50 PM 30.0138 -94.8961 249° West 257 296 6,800 -429 Descending FlightAware ADS-B (KHOU)
Tue 06:39:00 PM 30.0100 -94.9088 256° West 249 287 6,700 -1,000 Descending FlightAware ADS-B (KHOU)
Tue 06:39:02 PM 30.0095 -94.9123 262° West 243 280 6,600 -600 Descending FlightAware ADS-B
Tue 06:39:10 PM 30.0092 -94.9207 269° West 236 272 6,600 -783 Level FlightAware ADS-B (KHOU)
Tue 06:39:25 PM 30.0081 -94.9401 266° West 230 265 6,300 -1,000 Descending FlightAware ADS-B (KHOU)
Tue 06:39:40 PM 30.0068 -94.9584 267° West 223 257 6,100 -600 Descending FlightAware ADS-B (KHOU)
Tue 06:39:55 PM 30.0063 -94.9749 269° West 217 250 6,000 -563 Descending FlightAware ADS-B (KHOU)
Tue 06:40:12 PM 30.0064 -94.9959 272° West 211 243 5,800 -750 Descending FlightAware ADS-B
Tue 06:40:27 PM 30.0067 -95.0130 272° West 210 242 5,600 -968 Descending FlightAware ADS-B
Tue 06:40:43 PM 30.0070 -95.0296 271° West 207 238 5,300 -1,355 Descending FlightAware ADS-B
Tue 06:40:58 PM 30.0072 -95.0447 271° West 198 228 4,900 -1,400 Descending FlightAware ADS-B
Tue 06:41:13 PM 30.0072 -95.0606 270° West 182 209 4,600 -889 Descending FlightAware ADS-B
Tue 06:41:25 PM 30.0072 -95.0718 272° West 169 194 4,500 -923 Descending FlightAware ADS-B (KHOU)
Tue 06:41:39 PM 30.0071 -95.0851 270° West 168 193 4,200 -1,200 Descending FlightAware ADS-B (KHOU)
Tue 06:41:45 PM 30.0071 -95.0894 272° West 166 191 4,100 -900 Descending FlightAware ADS-B (KHOU)
Tue 06:41:59 PM 30.0072 -95.1016 270° West 162 186 3,900 -828 Descending FlightAware ADS-B (KHOU)
Tue 06:42:14 PM 30.0072 -95.1156 270° West 161 185 3,700 -800 Descending FlightAware ADS-B (KHOU)
Tue 06:42:29 PM 30.0072 -95.1279 271° West 159 183 3,500 -968 Descending FlightAware ADS-B (KHOU)
Tue 06:42:45 PM 30.0072 -95.1407 270° West 159 183 3,200 -1,000 Descending FlightAware ADS-B (KHOU)
Tue 06:42:59 PM 30.0073 -95.1535 270° West 161 185 3,000 -828 Descending FlightAware ADS-B (KHOU)
Tue 06:43:14 PM 30.0072 -95.1666 271° West 162 186 2,800 -800 Descending FlightAware ADS-B (KHOU)
Tue 06:43:29 PM 30.0072 -95.1782 270° West 162 186 2,600 -828 Descending FlightAware ADS-B (KHOU)
Tue 06:43:43 PM 30.0073 -95.1905 271° West 158 182 2,400 -800 Descending FlightAware ADS-B (KHOU)
Tue 06:43:59 PM 30.0073 -95.2043 270° West 158 182 2,200 -968 Descending FlightAware ADS-B (KHOU)
Tue 06:44:14 PM 30.0072 -95.2180 270° West 160 184 1,900 -968 Descending FlightAware ADS-B (KHOU)
Tue 06:44:30 PM 30.0072 -95.2304 270° West 159 183 1,700 -774 Descending FlightAware ADS-B (KHOU)
Tue 06:44:45 PM 30.0072 -95.2428 270° West 150 173 1,500 -800 Descending FlightAware ADS-B (KHOU)
Tue 06:45:00 PM 30.0072 -95.2542 270° West 136 157 1,300 -800 Descending FlightAware ADS-B (KHOU)
Tue 06:45:15 PM 30.0071 -95.2645 270° West 124 143 1,100 -621 Descending FlightAware ADS-B (KHOU)
Tue 06:45:29 PM 30.0071 -95.2741 271° West 124 143 1,000 -600 Descending FlightAware ADS-B (KHOU)
Tue 06:45:45 PM 30.0072 -95.2841 271° West 127 146 800 -774 Descending FlightAware ADS-B (KHOU)
Tue 06:46:00 PM 30.0072 -95.2947 271° West 128 147 600 -600 Descending FlightAware ADS-B (KHOU)
Tue 06:46:15 PM 30.0072 -95.3051 269° West 130 150 500 -600 Descending FlightAware ADS-B (KHOU)
Tue 06:46:30 PM 30.0072 -95.3151 272° West 129 148 300 -800 Descending FlightAware ADS-B (KHOU)
Tue 06:46:45 PM 30.0072 -95.3261 270° West 139 160 100 -800 Descending FlightAware ADS-B (KHOU)

Login

Don't have an account? Register now (free) for customized features, flight alerts, and more!